Time;durP1;ratioP1;P1;durP2;ratioP2;P2;SDS_P1;SDS_P2;PMS_P1;PMS_P2;Temp;Humidity;BMP_temperature;BMP_pressure;BME280_temperature;BME280_humidity;BME280_pressure;Samples;Min_cycle;Max_cycle;Signal;HPM_P1;HPM_P2
2021/11/17 02:45:13;;;;;;;11.50;6.50;;;;;;;17.32;45.36;101944.95;97953;1406;59361;-82
2021/11/17 02:52:38;;;;;;;;;;;;;;;;;;;;;
2021/11/17 02:56:21;;;;;;;;;;;;;;;;;;;;;
2021/11/17 03:19:44;;;;;;;;;;;;;;;;;;;;;
2021/11/17 03:23:26;;;;;;;;;;;;;;;;;;;;;
2021/11/17 03:34:57;;;;;;;12.10;7.00;;;;;;;17.31;45.18;101917.59;99679;1384;59259;-81
2021/11/17 03:43:24;;;;;;;9.00;6.40;;;;;;;17.30;45.16;101916.73;93794;1409;72643;-79
2021/11/17 04:23:18;;;;;;;;;;;;;;;;;;;;;
2021/11/17 04:27:33;;;;;;;10.30;6.20;;;;;;;17.29;44.86;101899.51;100222;1375;59454;-82
2021/11/17 04:47:07;;;;;;;9.40;6.70;;;;;;;17.32;44.93;101892.29;100908;1361;601868;-82
2021/11/17 04:54:50;;;;;;;;;;;;;;;;;;;;;
2021/11/17 04:58:35;;;;;;;;;;;;;;;;;;;;;
2021/11/17 05:02:15;;;;;;;;;;;;;;;;;;;;;
2021/11/17 05:06:42;;;;;;;10.80;6.80;;;;;;;17.25;44.89;101905.70;99047;1391;73133;-80
2021/11/17 05:13:59;;;;;;;10.50;6.70;;;;;;;17.25;44.93;101900.55;98660;1390;59374;-82
2021/11/17 05:17:52;;;;;;;;;;;;;;;;;;;;;
2021/11/17 05:21:35;;;;;;;;;;;;;;;;;;;;;
2021/11/17 05:25:53;;;;;;;;;;;;;;;;;;;;;
2021/11/17 05:29:47;;;;;;;;;;;;;;;;;;;;;
2021/11/17 05:33:18;;;;;;;;;;;;;;;;;;;;;
2021/11/17 05:40:41;;;;;;;;;;;;;;;;;;;;;
2021/11/17 05:44:40;;;;;;;;;;;;;;;;;;;;;
2021/11/17 05:48:23;;;;;;;;;;;;;;;;;;;;;
2021/11/17 05:55:52;;;;;;;;;;;;;;;;;;;;;
2021/11/17 05:59:08;;;;;;;14.50;7.90;;;;;;;17.28;42.85;101932.29;97947;1398;60359;-80
2021/11/17 06:02:13;;;;;;;16.70;8.00;;;;;;;17.29;42.60;101930.31;97919;1397;61609;-81
2021/11/17 06:04:44;;;;;;;17.60;8.30;;;;;;;17.30;42.48;101930.43;98122;1394;72498;-79
2021/11/17 06:07:41;;;;;;;;;;;;;;;;;;;;;
2021/11/17 06:10:43;;;;;;;12.30;7.80;;;;;;;17.34;41.93;101934.35;98574;1395;61694;-78
2021/11/17 06:13:41;;;;;;;;;;;;;;;;;;;;;
2021/11/17 06:17:23;;;;;;;;;;;;;;;;;;;;;
2021/11/17 06:20:23;;;;;;;13.80;7.90;;;;;;;17.50;41.49;101937.14;97828;1398;73523;-80
2021/11/17 06:23:23;;;;;;;14.70;8.40;;;;;;;17.51;41.22;101936.38;98010;1391;61699;-78
2021/11/17 06:25:51;;;;;;;11.90;7.20;;;;;;;17.51;40.93;101937.64;98824;1388;61921;-79
2021/11/17 06:29:19;;;;;;;12.30;7.40;;;;;;;17.54;40.97;101934.67;98560;1387;72676;-79
2021/11/17 06:32:34;;;;;;;;;;;;;;;;;;;;;
2021/11/17 06:35:05;;;;;;;14.30;8.70;;;;;;;17.55;40.59;101939.42;99217;1377;60512;-78
2021/11/17 06:38:37;;;;;;;15.60;7.90;;;;;;;17.58;40.30;101936.31;99203;1377;60420;-78
2021/11/17 06:41:21;;;;;;;18.00;8.80;;;;;;;17.59;40.18;101936.96;99230;1378;73111;-79
2021/11/17 06:44:36;;;;;;;15.90;8.60;;;;;;;17.59;39.96;101935.57;98991;1378;74080;-79
2021/11/17 06:47:56;;;;;;;15.20;8.40;;;;;;;17.58;39.86;101938.98;99172;1380;59813;-79
2021/11/17 06:50:21;;;;;;;14.50;8.20;;;;;;;17.57;39.71;101942.92;100248;1374;60724;-80
2021/11/17 06:52:47;;;;;;;16.40;8.00;;;;;;;17.56;39.63;101943.67;100242;1374;57827;-80
2021/11/17 06:55:22;;;;;;;12.80;7.60;;;;;;;17.51;39.44;101944.79;100164;1369;73269;-79
2021/11/17 06:58:08;;;;;;;18.60;7.90;;;;;;;17.39;39.44;101944.67;100366;1368;59761;-80
2021/11/17 07:00:41;;;;;;;21.50;7.60;;;;;;;17.32;39.57;101946.35;100218;1362;60394;-79
2021/11/17 07:03:28;;;;;;;17.30;7.50;;;;;;;17.32;39.64;101946.55;100115;1364;74151;-80
2021/11/17 07:06:21;;;;;;;15.60;7.60;;;;;;;17.37;39.70;101947.08;101282;1366;73963;-81
2021/11/17 07:09:02;;;;;;;17.00;6.90;;;;;;;17.39;39.54;101941.09;100269;1368;61908;-80
2021/11/17 07:12:16;;;;;;;15.60;6.80;;;;;;;17.41;39.56;101937.13;100675;1364;58680;-78
2021/11/17 07:14:42;;;;;;;14.80;6.90;;;;;;;17.45;39.44;101937.34;102054;1358;72773;-79
2021/11/17 07:17:08;;;;;;;17.90;6.90;;;;;;;17.50;39.49;101934.84;102283;1353;57777;-79
2021/11/17 07:19:45;;;;;;;15.90;6.40;;;;;;;17.54;39.40;101932.34;101299;1355;59693;-79
2021/11/17 07:22:39;;;;;;;13.30;6.20;;;;;;;17.60;39.51;101932.52;101030;1356;61077;-78
2021/11/17 07:29:17;;;;;;;;;;;;;;;;;;;;;
2021/11/17 07:31:43;;;;;;;15.70;6.40;;;;;;;17.62;39.12;101928.00;100086;1372;61787;-79
2021/11/17 07:34:09;;;;;;;12.80;6.10;;;;;;;17.62;39.08;101924.94;100720;1371;57851;-79
2021/11/17 07:36:35;;;;;;;13.50;6.10;;;;;;;17.64;38.93;101929.34;100808;1370;57738;-79
2021/11/17 07:39:01;;;;;;;12.90;5.70;;;;;;;17.66;38.80;101929.08;100849;1375;58020;-79
2021/11/17 07:41:27;;;;;;;10.90;5.50;;;;;;;17.68;38.70;101929.52;100685;1373;57763;-79
2021/11/17 07:44:16;;;;;;;13.00;5.80;;;;;;;17.70;38.73;101932.10;100357;1370;59373;-79
2021/11/17 07:47:43;;;;;;;12.90;5.90;;;;;;;17.71;38.58;101930.47;99823;1371;74022;-78
2021/11/17 07:50:54;;;;;;;13.10;5.50;;;;;;;17.69;38.52;101928.77;99146;1374;74374;-79
2021/11/17 07:54:19;;;;;;;14.60;6.60;;;;;;;17.67;38.42;101930.64;98713;1377;60865;-78
2021/11/17 07:57:04;;;;;;;;;;;;;;;;;;;;;
2021/11/17 07:59:32;;;;;;;19.80;5.70;;;;;;;17.53;38.46;101930.46;98940;1385;74036;-80
2021/11/17 08:02:48;;;;;;;18.00;5.80;;;;;;;17.50;38.68;101931.45;98816;1384;73346;-80
2021/11/17 08:05:20;;;;;;;14.70;5.60;;;;;;;17.47;38.73;101930.33;98769;1379;60840;-80
2021/11/17 08:07:57;;;;;;;13.80;5.50;;;;;;;17.49;38.79;101926.69;98696;1381;61008;-79
2021/11/17 08:10:36;;;;;;;11.40;5.70;;;;;;;17.51;38.84;101922.69;99158;1375;73817;-79
2021/11/17 08:13:12;;;;;;;15.50;5.40;;;;;;;17.54;38.74;101929.13;99095;1378;74177;-78
2021/11/17 08:15:44;;;;;;;17.50;5.30;;;;;;;17.57;38.65;101924.23;99183;1376;61641;-78
2021/11/17 08:21:45;;;;;;;14.10;5.50;;;;;;;17.54;38.35;101927.03;99087;1376;73907;-78
2021/11/17 08:24:33;;;;;;;;;;;;;;;17.52;38.29;101926.05;99163;1375;73418;-78
2021/11/17 08:27:08;;;;;;;9.50;4.80;;;;;;;17.49;38.36;101927.22;100177;1370;60232;-79
2021/11/17 08:29:58;;;;;;;13.70;5.10;;;;;;;17.52;38.16;101932.27;99709;1368;60540;-78
2021/11/17 08:33:12;;;;;;;;;;;;;;;;;;;;;
2021/11/17 08:37:01;;;;;;;13.50;5.30;;;;;;;17.49;37.98;101933.81;100595;1365;71960;-79
2021/11/17 08:39:53;;;;;;;11.40;5.40;;;;;;;17.48;38.02;101929.20;100247;1364;61460;-78
2021/11/17 08:42:44;;;;;;;15.30;5.20;;;;;;;17.48;37.92;101931.19;100142;1368;61663;-79
2021/11/17 08:45:55;;;;;;;;;;;;;;;;;;;;;
2021/11/17 08:49:04;;;;;;;;;;;;;;;;;;;;;
2021/11/17 08:51:51;;;;;;;15.70;5.90;;;;;;;17.39;37.76;101930.09;99920;1369;60379;-79
2021/11/17 08:55:24;;;;;;;8.80;5.70;;;;;;;17.38;37.72;101929.77;99653;1368;61848;-78
2021/11/17 08:58:31;;;;;;;;;;;;;;;;;;;;;
2021/11/17 09:01:37;;;;;;;;;;;;;;;;;;;;;
2021/11/17 09:04:50;;;;;;;;;;;;;;;;;;;;;
2021/11/17 09:07:17;;;;;;;8.80;4.90;;;;;;;17.33;37.81;101918.39;99534;1387;60594;-79
2021/11/17 09:10:01;;;;;;;9.50;5.50;;;;;;;17.36;37.81;101918.46;99506;1390;72954;-78
2021/11/17 09:12:26;;;;;;;8.00;4.00;;;;;;;17.38;37.88;101910.92;99561;1390;58209;-78
2021/11/17 09:14:53;;;;;;;9.10;4.70;;;;;;;17.40;37.82;101915.27;99732;1382;57636;-78
2021/11/17 09:17:53;;;;;;;;;;;;;;;;;;;;;
2021/11/17 09:21:01;;;;;;;9.50;5.10;;;;;;;17.37;37.66;101916.29;99126;1376;73362;-78
2021/11/17 09:23:50;;;;;;;10.20;4.60;;;;;;;17.39;37.57;101913.36;99068;1377;73172;-79
2021/11/17 09:27:18;;;;;;;;;;;;;;;;;;;;;
2021/11/17 09:31:13;;;;;;;;;;;;;;;;;;;;;
2021/11/17 09:34:32;;;;;;;13.90;5.70;;;;;;;17.41;37.25;101901.19;98541;1387;71483;-79
2021/11/17 09:38:07;;;;;;;10.60;5.00;;;;;;;17.43;37.28;101893.27;98554;1386;71208;-78
2021/11/17 09:41:34;;;;;;;;;;;;;;;;;;;;;
2021/11/17 09:45:03;;;;;;;7.30;4.30;;;;;;;17.49;37.14;101886.28;98208;1397;60529;-78
2021/11/17 09:48:17;;;;;;;7.90;4.20;;;;;;;17.51;36.96;101879.25;97748;1400;73723;-79
2021/11/17 09:51:40;;;;;;;10.60;4.30;;;;;;;17.54;36.77;101875.95;97015;1403;72746;-79
2021/11/17 09:55:01;;;;;;;;;;;;;;;;;;;;;
2021/11/17 09:58:21;;;;;;;6.20;3.50;;;;;;;17.44;36.31;101866.70;96650;1410;60506;-79
2021/11/17 10:01:26;;;;;;;13.10;4.60;;;;;;;17.29;36.46;101866.23;97612;1407;72933;-79
2021/11/17 10:04:10;;;;;;;15.10;4.90;;;;;;;17.29;36.58;101866.75;97564;1407;75300;-80
2021/11/17 10:12:57;;;;;;;10.40;4.30;;;;;;;17.28;36.81;101857.55;97953;1403;71955;-79
2021/11/17 10:15:25;;;;;;;15.70;4.90;;;;;;;17.29;37.00;101849.67;98217;1400;74292;-78
2021/11/17 10:18:18;;;;;;;10.90;4.80;;;;;;;17.34;37.03;101845.56;97306;1396;60849;-78
2021/11/17 10:21:09;;;;;;;11.50;4.90;;;;;;;17.42;37.09;101840.29;97983;1395;60765;-78
2021/11/17 10:24:07;;;;;;;9.00;4.20;;;;;;;17.49;36.97;101837.85;98297;1388;73323;-79
2021/11/17 10:26:59;;;;;;;15.10;4.20;;;;;;;17.56;37.04;101828.50;98936;1385;74060;-79
2021/11/17 10:30:18;;;;;;;9.80;4.40;;;;;;;17.61;37.08;101827.97;99787;1370;60776;-80
2021/11/17 10:33:36;;;;;;;9.20;4.10;;;;;;;17.62;36.98;101824.71;100654;1368;61552;-79
2021/11/17 10:36:46;;;;;;;11.10;4.40;;;;;;;17.67;36.99;101820.08;99958;1371;73502;-78
2021/11/17 10:39:25;;;;;;;8.30;3.70;;;;;;;17.71;37.11;101815.61;99857;1371;74053;-78
2021/11/17 10:42:40;;;;;;;10.20;4.40;;;;;;;17.76;37.06;101811.84;99227;1376;60564;-81
2021/11/17 10:45:45;;;;;;;9.10;5.10;;;;;;;17.80;36.97;101806.16;99211;1378;60514;-79
2021/11/17 10:48:56;;;;;;;8.80;4.10;;;;;;;17.77;37.10;101797.77;99412;1373;74050;-79
2021/11/17 10:51:34;;;;;;;11.20;3.90;;;;;;;17.77;37.24;101787.63;100141;1371;75036;-80
2021/11/17 10:54:12;;;;;;;14.60;4.30;;;;;;;17.77;37.41;101787.44;100790;1369;60194;-81
2021/11/17 10:56:38;;;;;;;9.90;4.10;;;;;;;17.75;37.46;101784.11;99945;1374;60224;-80
2021/11/17 10:59:04;;;;;;;10.10;4.70;;;;;;;17.74;37.33;101790.73;100580;1370;58599;-82
2021/11/17 11:01:39;;;;;;;10.80;4.70;;;;;;;17.71;37.21;101788.02;100732;1371;59308;-79
2021/11/17 11:04:22;;;;;;;10.20;4.20;;;;;;;17.66;37.14;101783.27;99388;1370;60663;-79
2021/11/17 11:07:03;;;;;;;13.80;4.20;;;;;;;17.67;37.39;101783.74;100810;1371;60545;-79
2021/11/17 11:09:43;;;;;;;11.70;4.10;;;;;;;17.68;37.21;101778.88;100742;1370;73016;-79
2021/11/17 11:12:10;;;;;;;12.30;4.60;;;;;;;17.69;37.07;101778.13;100848;1370;74111;-79
2021/11/17 11:14:47;;;;;;;11.60;4.20;;;;;;;17.71;37.08;101776.45;100764;1373;60020;-78
2021/11/17 11:17:36;;;;;;;13.30;4.50;;;;;;;17.75;37.20;101773.64;101013;1368;60973;-79
2021/11/17 11:20:35;;;;;;;10.30;4.40;;;;;;;17.79;37.12;101769.73;100701;1374;72851;-78
2021/11/17 11:23:24;;;;;;;;;;;;;;;17.83;36.96;101769.20;101420;1362;75324;-78
2021/11/17 11:26:17;;;;;;;11.90;4.60;;;;;;;17.88;36.98;101760.23;101152;1370;60348;-78
2021/11/17 11:29:00;;;;;;;12.40;4.60;;;;;;;17.93;37.01;101754.91;100901;1362;60598;-79
2021/11/17 11:31:32;;;;;;;9.10;4.50;;;;;;;17.97;37.02;101756.19;101436;1365;72977;-79
2021/11/17 11:33:57;;;;;;;10.80;3.60;;;;;;;18.00;36.92;101749.98;101403;1363;75297;-78
2021/11/17 11:36:52;;;;;;;11.10;4.10;;;;;;;18.04;36.95;101745.00;100937;1362;60558;-78
2021/11/17 11:39:39;;;;;;;12.30;4.20;;;;;;;18.12;36.96;101744.51;100242;1368;61547;-78
2021/11/17 11:43:33;;;;;;;;;;;;;;;;;;;;;
2021/11/17 11:46:34;;;;;;;10.00;4.40;;;;;;;18.23;37.15;101748.27;99930;1380;76477;-79
2021/11/17 11:49:09;;;;;;;12.10;4.50;;;;;;;18.24;37.21;101739.13;99801;1380;60352;-79
2021/11/17 11:51:59;;;;;;;9.90;4.10;;;;;;;18.15;36.94;101737.05;99143;1389;59933;-80
2021/11/17 11:54:30;;;;;;;10.20;3.90;;;;;;;18.05;36.95;101735.54;99724;1386;73893;-79
2021/11/17 11:57:23;;;;;;;10.70;4.10;;;;;;;18.02;37.05;101732.25;99817;1383;75026;-80
2021/11/17 12:00:26;;;;;;;9.20;4.00;;;;;;;18.02;37.08;101733.50;99923;1377;62801;-79
2021/11/17 12:03:11;;;;;;;9.60;4.40;;;;;;;18.02;36.97;101732.47;99987;1383;60613;-80
2021/11/17 12:05:40;;;;;;;9.00;4.60;;;;;;;17.98;36.84;101732.44;100114;1382;73927;-79
2021/11/17 12:08:23;;;;;;;7.50;4.10;;;;;;;17.84;36.81;101729.98;99546;1383;75247;-80
2021/11/17 12:11:26;;;;;;;9.10;4.40;;;;;;;17.81;36.92;101729.38;99258;1379;61655;-79
2021/11/17 12:15:05;;;;;;;10.90;4.70;;;;;;;17.81;37.01;101727.06;99080;1377;61273;-79
2021/11/17 12:17:47;;;;;;;8.30;4.30;;;;;;;17.83;36.98;101731.08;99619;1380;74101;-79
2021/11/17 12:21:10;;;;;;;;;;;;;;;;;;;;;
2021/11/17 12:24:12;;;;;;;7.60;4.40;;;;;;;17.84;36.77;101722.33;100691;1374;58853;-83
2021/11/17 12:27:04;;;;;;;9.60;3.90;;;;;;;17.84;36.81;101720.89;100749;1367;60517;-81
2021/11/17 12:30:19;;;;;;;6.30;3.90;;;;;;;17.86;36.75;101721.17;100282;1377;73989;-80
2021/11/17 12:33:25;;;;;;;;;;;;;;;;;;;;;
2021/11/17 12:36:31;;;;;;;8.70;4.10;;;;;;;17.83;36.59;101713.64;99384;1382;61698;-80
2021/11/17 12:39:37;;;;;;;7.40;4.10;;;;;;;17.85;36.62;101714.26;98367;1382;61507;-81
2021/11/17 12:42:39;;;;;;;12.10;5.10;;;;;;;17.87;36.56;101706.02;98283;1382;72794;-81
2021/11/17 12:46:25;;;;;;;12.40;4.40;;;;;;;17.83;36.51;101708.48;98267;1386;72814;-79
2021/11/17 12:50:03;;;;;;;8.40;4.80;;;;;;;17.78;36.55;101705.85;97794;1391;60527;-79
2021/11/17 12:53:20;;;;;;;8.80;3.90;;;;;;;17.76;36.65;101701.98;96950;1401;60709;-79
2021/11/17 12:56:19;;;;;;;12.00;4.20;;;;;;;17.74;36.71;101703.70;97388;1400;74148;-79
2021/11/17 12:58:54;;;;;;;12.00;4.70;;;;;;;17.74;37.51;101697.98;98197;1401;75260;-79
2021/11/17 13:01:51;;;;;;;9.60;4.90;;;;;;;17.71;37.33;101699.17;98359;1404;59673;-79
2021/11/17 13:05:00;;;;;;;;;;;;;;;;;;;;;
2021/11/17 13:08:21;;;;;;;22.50;4.40;;;;;;;17.68;38.19;101698.25;98399;1404;73927;-78
2021/11/17 13:11:05;;;;;;;20.20;4.70;;;;;;;17.74;38.84;101696.40;98148;1406;74755;-78
2021/11/17 13:14:16;;;;;;;14.60;4.50;;;;;;;17.77;39.11;101699.48;98668;1397;60677;-80
2021/11/17 13:16:45;;;;;;;13.60;4.70;;;;;;;17.80;39.11;101700.61;97812;1406;62098;-79
2021/11/17 13:19:54;;;;;;;12.60;4.10;;;;;;;17.81;39.10;101702.70;98646;1400;74017;-79
2021/11/17 13:23:08;;;;;;;;;;;;;;;;;;;;;
2021/11/17 13:26:42;;;;;;;9.70;4.50;;;;;;;17.73;38.80;101701.94;97956;1397;60616;-79
2021/11/17 13:30:43;;;;;;;;;;;;;;;;;;;;;
2021/11/17 13:34:35;;;;;;;6.40;3.90;;;;;;;17.63;38.46;101696.88;97713;1397;73789;-80
2021/11/17 13:37:47;;;;;;;;;;;;;;;;;;;;;
2021/11/17 13:41:28;;;;;;;;;;;;;;;;;;;;;
2021/11/17 13:52:06;;;;;;;;;;;;;;;;;;;;;
2021/11/17 13:55:45;;;;;;;10.70;4.70;;;;;;;17.40;37.92;101703.32;97047;1404;60611;-78
2021/11/17 13:58:53;;;;;;;9.50;4.70;;;;;;;17.37;37.92;101701.15;96386;1413;60660;-78
2021/11/17 14:02:03;;;;;;;8.00;5.10;;;;;;;17.34;37.84;101696.98;96069;1423;71658;-79
2021/11/17 14:04:52;;;;;;;12.10;5.10;;;;;;;17.34;37.83;101701.98;95905;1428;74938;-79
2021/11/17 14:08:24;;;;;;;;;;;;;;;17.35;37.66;101700.17;96145;1420;60361;-79
2021/11/17 14:11:35;;;;;;;8.70;4.70;;;;;;;17.34;37.61;101704.45;96591;1409;60471;-79
2021/11/17 14:15:22;;;;;;;6.60;4.40;;;;;;;17.36;37.37;101704.74;96655;1418;70842;-79
2021/11/17 14:19:02;;;;;;;;;;;;;;;;;;;;;
2021/11/17 14:22:12;;;;;;;;;;;;;;;17.40;37.72;101703.66;96120;1420;60635;-79
2021/11/17 14:25:52;;;;;;;;;;;;;;;;;;;;;
2021/11/17 14:29:32;;;;;;;;;;;;;;;;;;;;;
2021/11/17 14:32:38;;;;;;;8.10;4.80;;;;;;;17.44;37.89;101695.36;96951;1411;75019;-79
2021/11/17 14:36:36;;;;;;;;;;;;;;;;;;;;;
2021/11/17 14:43:54;;;;;;;;;;;;;;;;;;;;;
2021/11/17 14:47:16;;;;;;;;;;;;;;;;;;;;;
2021/11/17 14:50:44;;;;;;;;;;;;;;;;;;;;;
2021/11/17 14:57:53;;;;;;;;;;;;;;;;;;;;;
2021/11/17 15:05:38;;;;;;;7.00;4.60;;;;;;;17.52;39.26;101686.49;96252;1421;60576;-81
2021/11/17 15:08:50;;;;;;;7.50;4.60;;;;;;;17.51;39.29;101689.20;96097;1429;60593;-80
2021/11/17 15:12:14;;;;;;;;;;;;;;;;;;;;;
2021/11/17 15:15:55;;;;;;;;;;;;;;;;;;;;;
2021/11/17 15:19:11;;;;;;;;;;;;;;;;;;;;;
2021/11/17 15:22:57;;;;;;;;;;;;;;;;;;;;;
2021/11/17 15:30:22;;;;;;;;;;;;;;;;;;;;;
2021/11/17 15:34:36;;;;;;;6.50;4.00;;;;;;;17.51;40.66;101682.42;97194;1408;60893;-80
2021/11/17 15:37:51;;;;;;;;;;;;;;;;;;;;;
2021/11/17 15:51:49;;;;;;;;;;;;;;;;;;;;;
2021/11/17 16:09:52;;;;;;;;;;;;;;;;;;;;;
2021/11/17 16:13:47;;;;;;;;;;;;;;;;;;;;;
2021/11/17 16:21:17;;;;;;;;;;;;;;;;;;;;;
2021/11/17 16:28:42;;;;;;;10.10;5.30;;;;;;;17.52;42.67;101703.55;96198;1423;60423;-79
2021/11/17 16:43:08;;;;;;;8.80;5.80;;;;;;;17.52;43.35;101706.58;101574;1361;71140;-81
2021/11/17 16:50:22;;;;;;;;;;;;;;;;;;;;;
2021/11/17 17:05:12;;;;;;;8.60;5.20;;;;;;;17.51;44.00;101728.69;96846;1414;62264;-81
2021/11/17 17:08:36;;;;;;;;;;;;;;;;;;;;;
2021/11/17 17:11:52;;;;;;;;;;;;;;;;;;;;;
2021/11/17 17:15:43;;;;;;;;;;;;;;;;;;;;;
2021/11/17 17:19:18;;;;;;;9.30;5.50;;;;;;;17.51;44.01;101722.65;96554;1422;59847;-80
2021/11/17 17:22:35;;;;;;;;;;;;;;;;;;;;;
2021/11/17 17:26:11;;;;;;;;;;;;;;;;;;;;;
2021/11/17 17:29:59;;;;;;;;;;;;;;;;;;;;;
2021/11/17 17:33:42;;;;;;;7.50;5.20;;;;;;;17.50;44.46;101720.88;96148;1428;61114;-81
2021/11/17 17:37:09;;;;;;;10.20;5.70;;;;;;;17.50;44.35;101720.87;96192;1423;71904;-80
2021/11/17 17:40:25;;;;;;;;;;;;;;;;;;;;;
2021/11/17 17:44:09;;;;;;;7.60;5.40;;;;;;;17.50;44.67;101723.55;97569;1408;59926;-81
2021/11/17 17:47:18;;;;;;;9.40;6.00;;;;;;;17.51;44.52;101723.71;97497;1408;61152;-81
2021/11/17 17:51:30;;;;;;;10.80;5.50;;;;;;;17.51;44.64;101726.75;97512;1409;74712;-81
2021/11/17 17:54:35;;;;;;;;;;;;;;;;;;;;;
2021/11/17 17:58:29;;;;;;;8.70;5.80;;;;;;;17.51;44.85;101727.29;96332;1420;61650;-81
2021/11/17 18:01:51;;;;;;;7.50;5.40;;;;;;;17.50;44.93;101724.45;96383;1422;59971;-81
2021/11/17 18:05:43;;;;;;;9.60;6.20;;;;;;;17.51;44.98;101726.58;96444;1423;75361;-81
2021/11/17 18:09:16;;;;;;;9.80;5.90;;;;;;;17.50;45.00;101724.98;96863;1416;73501;-82
2021/11/17 18:12:25;;;;;;;;;;;;;;;;;;;;;
2021/11/17 18:16:18;;;;;;;10.50;6.20;;;;;;;17.50;45.39;101732.46;96040;1431;61405;-81
2021/11/17 18:19:49;;;;;;;10.70;5.90;;;;;;;17.50;45.22;101725.86;96042;1426;71724;-80
2021/11/17 18:23:15;;;;;;;8.60;5.90;;;;;;;17.51;45.30;101728.89;96207;1423;73256;-80
2021/11/17 18:30:21;;;;;;;;;;;;;;;;;;;;;
2021/11/17 18:33:47;;;;;;;;;;;;;;;;;;;;;
2021/11/17 18:37:06;;;;;;;8.20;5.20;;;;;;;17.50;45.62;101730.71;96456;1420;74341;-82
2021/11/17 18:40:43;;;;;;;;;;;;;;;;;;;;;
2021/11/17 18:44:30;;;;;;;7.90;5.10;;;;;;;17.49;45.53;101731.62;96431;1419;59871;-82
2021/11/17 18:48:08;;;;;;;;;;;;;;;;;;;;;
2021/11/17 18:51:23;;;;;;;8.20;4.90;;;;;;;17.49;45.62;101737.15;96624;1417;73341;-81
2021/11/17 18:55:00;;;;;;;;;;;;;;;;;;;;;
2021/11/17 18:58:56;;;;;;;;;;;;;;;;;;;;;
2021/11/17 19:06:29;;;;;;;;;;;;;;;;;;;;;
2021/11/17 19:10:37;;;;;;;;;;;;;;;;;;;;;
2021/11/17 19:20:04;;;;;;;6.90;5.10;;;;;;;17.49;45.80;101743.37;96880;1418;72238;-81
2021/11/17 19:23:44;;;;;;;7.10;5.20;;;;;;;17.48;45.91;101746.06;96819;1417;60061;-81
2021/11/17 19:31:07;;;;;;;;;;;;;;;;;;;;;
2021/11/17 19:35:39;;;;;;;8.70;5.70;;;;;;;17.53;45.97;101744.27;101177;1354;601702;-80
2021/11/17 19:38:59;;;;;;;;;;;;;;;;;;;;;
2021/11/17 19:49:41;;;;;;;;;;;;;;;;;;;;;
2021/11/17 19:53:52;;;;;;;9.60;6.30;;;;;;;17.48;46.02;101754.78;98269;1403;73930;-81
2021/11/17 19:57:04;;;;;;;;;;;;;;;;;;;;;
2021/11/17 20:00:41;;;;;;;;;;;;;;;;;;;;;
2021/11/17 20:14:40;;;;;;;;;;;;;;;;;;;;;
2021/11/17 20:41:10;;;;;;;;;;;;;;;;;;;;;
2021/11/17 20:44:47;;;;;;;;;;;;;;;;;;;;;
2021/11/17 20:48:12;;;;;;;;;;;;;;;;;;;;;
2021/11/17 20:51:49;;;;;;;;;;;;;;;;;;;;;
2021/11/17 21:10:36;;;;;;;;;;;;;;;;;;;;;
2021/11/17 21:18:11;;;;;;;6.80;4.90;;;;;;;17.49;46.38;101740.52;97503;1405;74795;-81
2021/11/17 21:21:40;;;;;;;7.50;5.40;;;;;;;17.49;46.29;101739.64;97282;1413;61957;-81
2021/11/17 21:25:09;;;;;;;8.00;5.00;;;;;;;17.48;46.45;101739.48;96633;1421;59702;-81
2021/11/17 21:28:18;;;;;;;9.50;5.60;;;;;;;17.49;46.37;101741.25;96627;1423;74122;-80
2021/11/17 21:43:03;;;;;;;;;;;;;;;;;;;;;
2021/11/17 21:46:57;;;;;;;;;;;;;;;;;;;;;
2021/11/17 21:58:11;;;;;;;7.90;5.10;;;;;;;17.53;46.49;101721.50;101186;1353;600839;-80
2021/11/17 22:02:23;;;;;;;8.60;5.50;;;;;;;17.49;46.49;101722.89;100926;1366;71081;-81
2021/11/17 22:05:45;;;;;;;7.30;5.20;;;;;;;17.49;46.47;101719.86;99541;1378;62217;-81
2021/11/17 22:09:23;;;;;;;;;;;;;;;;;;;;;
2021/11/17 22:24:03;;;;;;;;;;;;;;;;;;;;;
2021/11/17 22:31:39;;;;;;;;;;;;;;;;;;;;;
2021/11/17 22:35:14;;;;;;;;;;;;;;;;;;;;;
2021/11/17 22:39:11;;;;;;;;;;;;;;;;;;;;;
2021/11/17 22:43:12;;;;;;;8.20;5.10;;;;;;;17.50;46.37;101693.34;98661;1397;73934;-80
2021/11/17 22:46:24;;;;;;;7.60;5.30;;;;;;;17.49;46.47;101690.52;97626;1408;59605;-81
2021/11/17 22:50:19;;;;;;;6.90;4.90;;;;;;;17.49;46.54;101691.41;96965;1416;60586;-81
2021/11/17 22:53:00;;;;;;;8.60;5.00;;;;;;;17.48;46.42;101693.05;96246;1426;71621;-81
2021/11/17 22:56:40;;;;;;;7.70;4.60;;;;;;;17.48;46.53;101691.44;96072;1426;72436;-80
2021/11/17 23:08:02;;;;;;;6.30;4.70;;;;;;;17.48;46.51;101686.45;100161;1376;74399;-81
2021/11/17 23:15:09;;;;;;;;;;;;;;;;;;;;;
2021/11/17 23:18:46;;;;;;;;;;;;;;;;;;;;;
2021/11/17 23:25:37;;;;;;;;;;;;;;;;;;;;;
2021/11/17 23:33:02;;;;;;;;;;;;;;;;;;;;;
2021/11/17 23:36:33;;;;;;;7.00;4.70;;;;;;;17.46;46.39;101674.95;96169;1429;72750;-81
2021/11/17 23:40:09;;;;;;;;;;;;;;;;;;;;;
2021/11/17 23:58:25;;;;;;;7.70;4.00;;;;;;;17.45;46.51;101663.81;96537;1420;61502;-80
